Time;durP1;ratioP1;P1;durP2;ratioP2;P2;SDS_P1;SDS_P2;PMS_P1;PMS_P2;Temp;Humidity;BMP_temperature;BMP_pressure;BME280_temperature;BME280_humidity;BME280_pressure;Samples;Min_cycle;Max_cycle;Signal;HPM_P1;HPM_P2
2022/03/03 00:02:06;;;;;;;15.33;11.70;;;;;;;-1.63;100.00;96539.63;5032342;27;101992;-61
2022/03/03 00:04:33;;;;;;;18.70;12.60;;;;;;;-1.87;100.00;96531.91;5031655;28;102426;-61
2022/03/03 00:07:01;;;;;;;14.53;10.70;;;;;;;-2.01;100.00;96542.25;5031309;28;103188;-61
2022/03/03 00:09:28;;;;;;;15.63;10.87;;;;;;;-1.87;100.00;96544.94;5033770;28;101941;-61
2022/03/03 00:11:57;;;;;;;14.93;10.47;;;;;;;-1.82;100.00;96545.25;5029670;28;105006;-61
2022/03/03 00:14:23;;;;;;;15.83;10.33;;;;;;;-1.80;100.00;96538.06;5031924;27;101957;-61
2022/03/03 00:16:50;;;;;;;16.17;11.13;;;;;;;-1.94;100.00;96540.59;5031840;27;102429;-61
2022/03/03 00:19:17;;;;;;;15.90;10.47;;;;;;;-1.91;100.00;96538.44;5031123;28;102513;-61
2022/03/03 00:21:44;;;;;;;16.87;11.50;;;;;;;-2.03;100.00;96537.19;5031899;28;102283;-61
2022/03/03 00:24:12;;;;;;;16.03;11.03;;;;;;;-1.95;100.00;96534.56;5031632;28;102927;-61
2022/03/03 00:26:39;;;;;;;20.87;11.67;;;;;;;-1.92;100.00;96528.22;5029556;28;105968;-61
2022/03/03 00:29:09;;;;;;;16.23;11.97;;;;;;;-2.08;100.00;96542.09;5031535;27;101844;-61
2022/03/03 00:31:36;;;;;;;14.17;11.10;;;;;;;-2.18;100.00;96533.66;5032547;27;102410;-61
2022/03/03 00:34:03;;;;;;;14.77;11.77;;;;;;;-2.05;100.00;96525.31;5031260;27;101937;-61
2022/03/03 00:36:29;;;;;;;16.33;12.30;;;;;;;-1.85;100.00;96534.38;5029918;28;105695;-61
2022/03/03 00:38:57;;;;;;;17.33;12.37;;;;;;;-1.73;100.00;96533.00;5030833;28;102733;-61
2022/03/03 00:41:24;;;;;;;13.97;10.90;;;;;;;-1.64;100.00;96532.78;5029903;28;101995;-61
2022/03/03 00:43:51;;;;;;;14.87;11.30;;;;;;;-1.64;100.00;96532.78;5029654;28;105590;-62
2022/03/03 00:46:20;;;;;;;15.23;10.83;;;;;;;-1.61;100.00;96518.56;5030757;28;102675;-61
2022/03/03 00:48:47;;;;;;;16.63;11.27;;;;;;;-1.61;100.00;96527.22;5030971;27;101821;-62
2022/03/03 00:51:14;;;;;;;14.80;11.17;;;;;;;-1.56;100.00;96529.31;5034130;28;101779;-61
2022/03/03 00:53:41;;;;;;;17.67;11.87;;;;;;;-1.52;100.00;96526.19;5030743;27;101900;-62
2022/03/03 00:56:08;;;;;;;16.20;11.97;;;;;;;-1.98;100.00;96540.13;5030801;28;103027;-61
2022/03/03 00:58:35;;;;;;;15.40;11.53;;;;;;;-2.02;100.00;96536.22;5030605;28;102540;-61
2022/03/03 01:01:02;;;;;;;17.10;11.53;;;;;;;-1.95;100.00;96536.34;5029145;28;102156;-62
2022/03/03 01:03:31;;;;;;;13.97;10.40;;;;;;;-1.97;100.00;96533.13;5029388;28;105218;-61
2022/03/03 01:05:58;;;;;;;18.77;11.30;;;;;;;-1.97;100.00;96527.91;5030373;28;101834;-61
2022/03/03 01:08:25;;;;;;;16.60;11.13;;;;;;;-2.02;100.00;96533.59;5030778;28;101838;-61
2022/03/03 01:10:52;;;;;;;14.03;11.43;;;;;;;-2.00;100.00;96523.84;5029410;28;105234;-61
2022/03/03 01:13:21;;;;;;;17.43;11.73;;;;;;;-2.00;100.00;96528.25;5033405;28;102756;-62
2022/03/03 01:15:48;;;;;;;18.53;12.67;;;;;;;-2.04;100.00;96514.75;5030634;28;102380;-62
2022/03/03 01:18:16;;;;;;;29.40;16.67;;;;;;;-2.00;100.00;96523.03;5028729;28;105721;-61
2022/03/03 01:20:44;;;;;;;25.97;16.37;;;;;;;-2.18;100.00;96523.25;5029195;28;101841;-61
2022/03/03 01:23:11;;;;;;;25.33;14.97;;;;;;;-2.26;100.00;96515.47;5028854;28;105148;-61
2022/03/03 01:25:38;;;;;;;23.60;13.73;;;;;;;-2.30;100.00;96514.19;5030025;28;102593;-61
2022/03/03 01:28:06;;;;;;;24.33;13.77;;;;;;;-2.51;100.00;96516.53;5029031;28;102046;-61
2022/03/03 01:30:33;;;;;;;23.63;14.30;;;;;;;-2.51;100.00;96526.94;5029689;28;102418;-61
2022/03/03 01:33:00;;;;;;;17.33;12.30;;;;;;;-2.74;100.00;96523.41;5029453;28;103603;-61
2022/03/03 01:35:27;;;;;;;16.30;11.40;;;;;;;-2.80;100.00;96531.09;5033904;27;101910;-62
2022/03/03 01:37:56;;;;;;;16.30;11.90;;;;;;;-2.53;100.00;96531.50;5028546;28;106660;-61
2022/03/03 01:40:23;;;;;;;15.47;11.27;;;;;;;-2.53;100.00;96528.09;5029991;28;101831;-61
2022/03/03 01:42:50;;;;;;;16.67;11.13;;;;;;;-2.74;100.00;96526.03;5030054;27;102237;-61
2022/03/03 01:45:17;;;;;;;17.13;11.60;;;;;;;-2.64;100.00;96518.84;5029507;28;104438;-62
2022/03/03 01:47:45;;;;;;;16.90;11.87;;;;;;;-2.72;100.00;96518.88;5030116;28;102132;-62
2022/03/03 01:50:12;;;;;;;16.67;11.67;;;;;;;-2.65;100.00;96519.84;5030516;27;102338;-62
2022/03/03 01:52:39;;;;;;;16.63;11.60;;;;;;;-2.59;100.00;96515.75;5029501;28;103499;-62
2022/03/03 01:55:10;;;;;;;15.80;11.70;;;;;;;-2.51;100.00;96516.53;5028540;28;102369;-62
2022/03/03 01:57:37;;;;;;;18.43;11.40;;;;;;;-2.46;100.00;96511.63;5033142;28;102871;-62
2022/03/03 02:00:05;;;;;;;18.17;12.83;;;;;;;-2.46;100.00;96509.03;5028443;28;101815;-62
2022/03/03 02:02:39;;;;;;;17.30;13.03;;;;;;;-2.42;100.00;96499.09;5026928;28;102176;-62
2022/03/03 02:05:07;;;;;;;19.60;12.73;;;;;;;-2.45;100.00;96500.28;5029377;28;102612;-61
2022/03/03 02:07:34;;;;;;;16.87;11.80;;;;;;;-2.48;100.00;96499.75;5029548;28;101840;-61
2022/03/03 02:10:02;;;;;;;16.60;11.40;;;;;;;-2.45;100.00;96502.88;5028506;28;105108;-62
2022/03/03 02:12:31;;;;;;;16.13;12.27;;;;;;;-2.54;100.00;96501.25;5029535;27;103047;-61
2022/03/03 02:14:59;;;;;;;15.73;11.90;;;;;;;-2.62;100.00;96498.66;5027975;28;101787;-62
2022/03/03 02:17:26;;;;;;;17.97;12.10;;;;;;;-2.46;100.00;96501.22;5029669;28;102374;-61
2022/03/03 02:19:53;;;;;;;19.73;13.13;;;;;;;-2.50;100.00;96505.16;5031205;28;105969;-62
2022/03/03 02:22:22;;;;;;;18.17;12.17;;;;;;;-2.52;100.00;96499.28;5029654;28;102331;-61
2022/03/03 02:24:49;;;;;;;18.10;12.30;;;;;;;-2.51;100.00;96498.31;5027814;28;105508;-62
2022/03/03 02:27:17;;;;;;;16.30;12.13;;;;;;;-2.62;100.00;96495.25;5028090;28;102044;-62
2022/03/03 02:29:44;;;;;;;16.33;12.73;;;;;;;-2.70;100.00;96497.88;5028708;28;104661;-62
2022/03/03 02:32:11;;;;;;;16.53;12.07;;;;;;;-2.77;100.00;96489.13;5027630;28;103905;-61
2022/03/03 02:34:38;;;;;;;17.70;11.67;;;;;;;-2.74;100.00;96489.59;5029219;27;101901;-62
2022/03/03 02:37:05;;;;;;;14.83;12.50;;;;;;;-2.76;100.00;96491.56;5029426;28;102440;-62
2022/03/03 02:39:33;;;;;;;17.03;12.60;;;;;;;-3.09;100.00;96499.56;5028843;28;102653;-61
2022/03/03 02:42:00;;;;;;;17.57;12.10;;;;;;;-3.32;100.00;96483.81;5033058;27;101747;-62
2022/03/03 02:44:27;;;;;;;17.20;11.53;;;;;;;-3.27;100.00;96476.31;5027207;28;105364;-62
2022/03/03 02:46:54;;;;;;;17.37;12.13;;;;;;;-3.42;100.00;96480.56;5029337;28;102043;-61
2022/03/03 02:49:21;;;;;;;15.87;11.27;;;;;;;-3.49;100.00;96481.38;5028151;28;105601;-62
2022/03/03 02:51:48;;;;;;;15.33;11.80;;;;;;;-3.39;100.00;96489.84;5028671;27;102938;-62
2022/03/03 02:54:15;;;;;;;15.43;11.67;;;;;;;-3.19;100.00;96489.34;5028547;28;101901;-62
2022/03/03 02:59:27;;;;;;;16.73;11.30;;;;;;;-3.31;100.00;96495.03;5027099;28;105405;-61
2022/03/03 03:01:54;;;;;;;17.53;11.80;;;;;;;-3.20;100.00;96490.31;5032854;27;102101;-62
2022/03/03 03:04:21;;;;;;;18.80;12.00;;;;;;;-3.27;100.00;96491.94;5027149;28;104428;-62
2022/03/03 03:06:48;;;;;;;16.50;11.43;;;;;;;-3.10;100.00;96477.97;5029118;28;101994;-62
2022/03/03 03:09:15;;;;;;;15.40;11.13;;;;;;;-3.11;100.00;96478.91;5027772;28;105203;-62
2022/03/03 03:11:44;;;;;;;17.93;11.50;;;;;;;-3.14;100.00;96475.84;5027168;28;105712;-62
2022/03/03 03:14:11;;;;;;;18.80;11.80;;;;;;;-3.38;100.00;96474.06;5028840;28;101774;-62
2022/03/03 03:16:38;;;;;;;14.40;10.83;;;;;;;-3.77;100.00;96473.06;5028763;28;102369;-62
2022/03/03 03:19:05;;;;;;;14.90;10.47;;;;;;;-3.86;100.00;96483.59;5028389;28;102524;-62
2022/03/03 03:21:32;;;;;;;15.07;11.47;;;;;;;-3.58;100.00;96483.16;5027593;28;101893;-61
2022/03/03 03:23:58;;;;;;;17.70;10.83;;;;;;;-3.60;100.00;96487.69;5031814;28;102504;-62
2022/03/03 03:26:25;;;;;;;14.93;10.77;;;;;;;-3.53;100.00;96470.50;5027085;28;102018;-62
2022/03/03 03:28:53;;;;;;;15.63;11.43;;;;;;;-3.47;100.00;96475.03;5028550;27;103998;-61
2022/03/03 03:31:20;;;;;;;14.50;11.37;;;;;;;-3.53;100.00;96469.69;5027900;28;102775;-61
2022/03/03 03:33:47;;;;;;;14.43;11.30;;;;;;;-3.61;100.00;96467.09;5029044;27;101818;-62
2022/03/03 03:36:14;;;;;;;18.13;11.93;;;;;;;-3.54;100.00;96471.47;5029000;27;102348;-61
2022/03/03 03:38:41;;;;;;;15.83;11.03;;;;;;;-3.64;100.00;96468.22;5028233;27;103193;-62
2022/03/03 03:41:08;;;;;;;15.30;11.80;;;;;;;-3.55;100.00;96467.22;5027080;28;102127;-62
2022/03/03 03:43:35;;;;;;;15.87;11.33;;;;;;;-3.57;100.00;96464.00;5027284;28;105550;-61
2022/03/03 03:46:04;;;;;;;16.20;10.90;;;;;;;-3.63;100.00;96466.41;5030122;28;105702;-62
2022/03/03 03:48:31;;;;;;;16.90;11.33;;;;;;;-3.57;100.00;96471.78;5028241;28;101746;-62
2022/03/03 03:50:58;;;;;;;15.53;11.37;;;;;;;-3.53;100.00;96469.69;5026740;28;104795;-61
2022/03/03 03:53:25;;;;;;;15.97;10.50;;;;;;;-3.55;100.00;96471.63;5026960;28;101880;-62
2022/03/03 03:55:53;;;;;;;16.50;11.10;;;;;;;-3.62;100.00;96470.63;5026919;28;105239;-61
2022/03/03 03:58:19;;;;;;;16.07;11.27;;;;;;;-3.64;100.00;96467.41;5026260;28;105384;-61
2022/03/03 04:00:46;;;;;;;14.57;11.03;;;;;;;-3.60;100.00;96466.91;5027008;28;101969;-61
2022/03/03 04:03:15;;;;;;;15.17;10.90;;;;;;;-3.59;100.00;96462.53;5027002;28;105233;-61
2022/03/03 04:05:42;;;;;;;15.43;10.70;;;;;;;-3.66;100.00;96459.75;5026364;27;105461;-61
2022/03/03 04:08:09;;;;;;;15.83;11.97;;;;;;;-3.69;100.00;96460.09;5033039;28;101952;-61
2022/03/03 04:10:37;;;;;;;20.23;11.83;;;;;;;-3.69;100.00;96457.50;5029695;28;105869;-61
2022/03/03 04:13:04;;;;;;;19.80;12.37;;;;;;;-3.78;100.00;96455.06;5030417;28;101972;-61
2022/03/03 04:15:31;;;;;;;16.73;11.90;;;;;;;-3.79;100.00;96454.22;5030265;28;104846;-61
2022/03/03 04:17:58;;;;;;;14.80;11.37;;;;;;;-3.86;100.00;96453.25;5029473;28;105830;-61
2022/03/03 04:20:27;;;;;;;18.37;11.33;;;;;;;-3.74;100.00;96445.94;5030148;28;102013;-61
2022/03/03 04:22:55;;;;;;;15.83;10.20;;;;;;;-3.80;100.00;96437.03;5030146;28;105245;-61
2022/03/03 04:25:22;;;;;;;13.87;10.83;;;;;;;-3.81;100.00;96435.41;5030688;28;102658;-62
2022/03/03 04:27:49;;;;;;;17.53;11.07;;;;;;;-3.78;100.00;96427.28;5030045;28;101969;-61
2022/03/03 04:30:16;;;;;;;16.13;11.77;;;;;;;-3.67;100.00;96421.75;5032591;28;105086;-61
2022/03/03 04:32:44;;;;;;;16.73;11.50;;;;;;;-3.68;100.00;96420.13;5029762;28;101970;-61
2022/03/03 04:35:12;;;;;;;15.07;11.30;;;;;;;-3.85;100.00;96415.09;5029660;28;104026;-61
2022/03/03 04:37:41;;;;;;;19.33;12.00;;;;;;;-4.24;100.00;96422.69;5030718;28;103158;-61
2022/03/03 04:40:09;;;;;;;17.03;12.10;;;;;;;-4.21;100.00;96424.94;5029739;28;101839;-61
2022/03/03 04:42:36;;;;;;;16.60;11.90;;;;;;;-4.02;100.00;96411.69;5029924;28;105152;-61
2022/03/03 04:45:04;;;;;;;18.50;12.60;;;;;;;-3.94;100.00;96416.06;5029126;28;105831;-62
2022/03/03 04:47:32;;;;;;;19.40;12.73;;;;;;;-4.00;100.00;96409.72;5029729;28;101926;-62
2022/03/03 04:49:58;;;;;;;18.03;12.33;;;;;;;-3.91;100.00;96411.38;5029928;28;105060;-62
2022/03/03 04:52:26;;;;;;;14.50;11.03;;;;;;;-3.99;100.00;96406.16;5032363;27;101992;-61
2022/03/03 04:54:54;;;;;;;17.33;11.63;;;;;;;-3.97;100.00;96411.19;5029165;28;105593;-61
2022/03/03 04:57:22;;;;;;;16.97;11.20;;;;;;;-4.20;100.00;96418.78;5029310;28;105862;-61
2022/03/03 04:59:49;;;;;;;15.77;11.47;;;;;;;-4.32;100.00;96420.06;5063513;27;102053;-61
2022/03/03 05:02:16;;;;;;;16.20;11.97;;;;;;;-4.14;100.00;96412.94;5029823;28;105067;-61
2022/03/03 05:04:43;;;;;;;18.37;12.63;;;;;;;-4.00;100.00;96412.31;5030380;28;102546;-61
2022/03/03 05:07:10;;;;;;;16.37;11.10;;;;;;;-4.03;100.00;96407.47;5029234;28;101850;-61
2022/03/03 05:09:37;;;;;;;18.00;11.60;;;;;;;-4.05;100.00;96393.03;5029382;28;105657;-61
2022/03/03 05:12:08;;;;;;;17.43;11.47;;;;;;;-4.04;100.00;96387.66;5032149;28;105260;-61
2022/03/03 05:14:35;;;;;;;17.20;11.80;;;;;;;-3.97;100.00;96393.84;5029304;28;105253;-61
2022/03/03 05:17:02;;;;;;;14.07;10.30;;;;;;;-3.90;100.00;96388.78;5028264;27;105319;-61
2022/03/03 05:19:30;;;;;;;15.17;11.63;;;;;;;-3.89;100.00;96391.22;5029161;28;101913;-62
2022/03/03 05:21:57;;;;;;;16.13;11.23;;;;;;;-3.96;100.00;96394.63;5029352;28;105139;-61
2022/03/03 05:24:24;;;;;;;16.70;11.17;;;;;;;-4.15;100.00;96390.56;5028533;28;105098;-62
2022/03/03 05:26:52;;;;;;;14.57;11.23;;;;;;;-4.14;100.00;96388.78;5029149;28;101988;-61
2022/03/03 05:29:20;;;;;;;17.30;11.57;;;;;;;-4.08;100.00;96388.97;5028838;28;105101;-61
2022/03/03 05:31:47;;;;;;;16.90;11.97;;;;;;;-4.12;100.00;96387.66;5028212;28;104422;-61
2022/03/03 05:34:14;;;;;;;20.30;12.70;;;;;;;-4.26;100.00;96384.88;5032518;28;101897;-61
2022/03/03 05:36:43;;;;;;;16.13;11.97;;;;;;;-4.47;100.00;96392.28;5028244;28;103925;-61
2022/03/03 05:39:11;;;;;;;16.20;12.50;;;;;;;-4.63;100.00;96390.44;5030014;28;101819;-61
2022/03/03 05:41:37;;;;;;;18.47;12.10;;;;;;;-4.45;100.00;96396.34;5028903;28;105167;-61
2022/03/03 05:44:05;;;;;;;15.90;11.03;;;;;;;-4.38;100.00;96393.91;5028211;28;104501;-61
2022/03/03 05:46:34;;;;;;;15.23;11.73;;;;;;;-4.27;100.00;96391.84;5028846;28;101922;-62
2022/03/03 05:49:02;;;;;;;16.07;12.03;;;;;;;-4.23;100.00;96393.16;5028380;28;104842;-62
2022/03/03 05:51:29;;;;;;;17.40;12.43;;;;;;;-4.17;100.00;96394.28;5027849;28;105133;-62
2022/03/03 05:53:56;;;;;;;18.60;12.67;;;;;;;-4.18;100.00;96383.09;5028616;28;101946;-62
2022/03/03 05:56:24;;;;;;;18.03;12.30;;;;;;;-4.11;100.00;96389.28;5031415;28;105156;-61
2022/03/03 05:58:53;;;;;;;19.37;12.63;;;;;;;-4.19;100.00;96389.28;5028030;28;101904;-62
2022/03/03 06:01:20;;;;;;;18.57;12.37;;;;;;;-4.06;100.00;96383.59;5028668;28;104851;-62
2022/03/03 06:03:50;;;;;;;16.13;11.17;;;;;;;-4.01;100.00;96381.31;5027861;28;105070;-62
2022/03/03 06:06:21;;;;;;;14.73;11.70;;;;;;;-3.93;100.00;96376.16;5028531;28;102063;-62
2022/03/03 06:09:02;;;;;;;16.83;12.20;;;;;;;-3.93;100.00;96371.75;5028239;28;105257;-62
2022/03/03 06:11:29;;;;;;;16.57;11.60;;;;;;;-3.87;100.00;96378.09;5028018;28;105707;-62
2022/03/03 06:14:06;;;;;;;17.97;12.50;;;;;;;-4.05;100.00;96375.63;5028375;28;102075;-62
2022/03/03 06:16:35;;;;;;;18.70;12.70;;;;;;;-3.97;100.00;96378.25;5029977;27;102419;-62
2022/03/03 06:19:04;;;;;;;17.20;12.47;;;;;;;-3.85;100.00;96374.34;5032247;27;103031;-62
2022/03/03 06:21:32;;;;;;;16.33;11.77;;;;;;;-3.90;100.00;96374.03;5028267;28;105271;-62
2022/03/03 06:23:59;;;;;;;18.27;12.50;;;;;;;-4.00;100.00;96380.34;5029086;27;102506;-62
2022/03/03 06:26:26;;;;;;;15.90;12.03;;;;;;;-3.78;100.00;96388.31;5029595;28;101962;-62
2022/03/03 06:28:54;;;;;;;21.47;11.97;;;;;;;-3.65;100.00;96380.81;5028657;27;102378;-62
2022/03/03 06:31:22;;;;;;;16.33;11.67;;;;;;;-3.78;100.00;96382.31;5028484;28;102781;-62
2022/03/03 06:33:48;;;;;;;17.20;11.90;;;;;;;-3.66;100.00;96381.00;5027885;28;101803;-62
2022/03/03 06:36:17;;;;;;;17.47;12.50;;;;;;;-3.37;100.00;96374.31;5029279;28;102361;-62
2022/03/03 06:38:44;;;;;;;18.87;12.80;;;;;;;-3.28;100.00;96367.31;5028615;28;102539;-62
2022/03/03 06:41:11;;;;;;;19.30;12.63;;;;;;;-3.27;100.00;96367.13;5031217;28;101851;-62
2022/03/03 06:43:38;;;;;;;18.80;14.17;;;;;;;-3.07;100.00;96378.78;5027028;28;105405;-62
2022/03/03 06:46:07;;;;;;;19.67;14.00;;;;;;;-3.04;100.00;96383.66;5025120;28;102007;-62
2022/03/03 06:48:34;;;;;;;21.40;14.00;;;;;;;-3.07;100.00;96378.78;5028754;28;103194;-62
2022/03/03 06:51:04;;;;;;;17.53;13.43;;;;;;;-2.95;100.00;96382.66;5028276;28;102638;-62
2022/03/03 06:53:35;;;;;;;18.40;12.97;;;;;;;-2.77;100.00;96364.22;5028868;27;101841;-62
2022/03/03 06:56:05;;;;;;;19.63;14.33;;;;;;;-2.61;100.00;96359.75;5027804;28;105711;-62
2022/03/03 06:58:33;;;;;;;21.67;14.37;;;;;;;-2.36;100.00;96358.63;5027067;28;105368;-62
2022/03/03 07:01:05;;;;;;;24.73;14.80;;;;;;;-2.31;100.00;96345.91;5031090;28;101903;-62
2022/03/03 07:03:32;;;;;;;20.20;15.20;;;;;;;-2.08;100.00;96346.72;5027261;28;105826;-62
2022/03/03 07:06:01;;;;;;;21.30;15.00;;;;;;;-2.08;100.00;96346.72;5027409;28;101967;-62
2022/03/03 07:08:28;;;;;;;19.50;14.30;;;;;;;-1.86;100.00;96347.72;5027597;28;104980;-62
2022/03/03 07:10:56;;;;;;;20.00;14.93;;;;;;;-1.84;100.00;96349.19;5027119;28;105010;-62
2022/03/03 07:13:24;;;;;;;19.73;14.60;;;;;;;-1.71;100.00;96344.16;5027529;28;101806;-62
2022/03/03 07:15:52;;;;;;;27.33;14.90;;;;;;;-1.69;100.00;96339.56;5027203;28;105103;-62
2022/03/03 07:18:22;;;;;;;18.23;14.50;;;;;;;-1.35;100.00;96341.72;5028393;28;102624;-62
2022/03/03 07:20:59;;;;;;;18.77;13.60;;;;;;;-1.07;100.00;96338.31;5027453;28;101878;-62
2022/03/03 07:23:36;;;;;;;18.43;12.13;;;;;;;-0.83;100.00;96340.66;5030174;28;105298;-62
2022/03/03 07:26:07;;;;;;;15.63;10.20;;;;;;;-0.85;100.00;96340.03;5027420;28;102150;-62
2022/03/03 07:28:34;;;;;;;13.43;9.90;;;;;;;-0.65;100.00;96341.09;5027152;28;105234;-62
2022/03/03 07:31:03;;;;;;;13.00;9.07;;;;;;;-0.51;100.00;96324.56;5027348;28;104249;-62
2022/03/03 07:33:41;;;;;;;13.17;9.67;;;;;;;-0.33;100.00;96330.19;5029630;28;101807;-62
2022/03/03 07:36:10;;;;;;;12.03;10.03;;;;;;;-0.29;100.00;96328.84;5029678;27;102312;-62
2022/03/03 07:38:39;;;;;;;15.37;9.27;;;;;;;-0.31;100.00;96330.84;5026566;28;106067;-62
2022/03/03 07:41:08;;;;;;;11.27;8.47;;;;;;;-0.24;100.00;96326.50;5029837;27;101769;-62
2022/03/03 07:43:35;;;;;;;12.37;9.20;;;;;;;0.04;100.00;96324.75;5031890;28;104067;-62
2022/03/03 07:46:04;;;;;;;14.80;9.53;;;;;;;0.24;100.00;96325.75;5034484;28;105391;-62
2022/03/03 07:48:33;;;;;;;10.83;8.77;;;;;;;0.22;100.00;96318.09;5031443;28;105282;-62
2022/03/03 07:51:01;;;;;;;12.90;9.37;;;;;;;0.51;100.00;96319.75;5030734;28;105845;-62
2022/03/03 07:53:28;;;;;;;10.43;8.13;;;;;;;0.36;100.00;96319.00;5031218;28;102280;-62
2022/03/03 07:56:02;;;;;;;12.63;9.23;;;;;;;0.42;100.00;96310.41;5032603;27;104609;-62
2022/03/03 07:58:34;;;;;;;15.10;8.57;;;;;;;0.61;100.00;96307.13;5030978;28;105407;-62
2022/03/03 08:01:03;;;;;;;15.13;8.60;;;;;;;0.72;100.00;96299.56;5030783;28;101931;-62
2022/03/03 08:03:31;;;;;;;13.50;8.60;;;;;;;0.74;100.00;96302.81;5031386;28;105426;-62
2022/03/03 08:05:58;;;;;;;10.13;8.57;;;;;;;1.23;100.00;96302.66;5030559;28;106717;-62
2022/03/03 08:08:27;;;;;;;9.53;7.47;;;;;;;1.32;100.00;96307.53;5034825;28;101900;-62
2022/03/03 08:10:58;;;;;;;9.80;7.93;;;;;;;1.31;100.00;96300.69;5030535;28;103917;-62
2022/03/03 08:13:29;;;;;;;9.60;7.37;;;;;;;1.79;100.00;96301.44;5031002;28;101856;-62
2022/03/03 08:15:57;;;;;;;12.27;8.00;;;;;;;1.99;100.00;96294.44;5032627;28;102610;-62
2022/03/03 08:18:27;;;;;;;9.57;7.17;;;;;;;2.19;100.00;96293.44;5030548;28;103759;-62
2022/03/03 08:20:57;;;;;;;9.97;7.50;;;;;;;2.27;100.00;96298.50;5031052;28;101964;-62
2022/03/03 08:23:26;;;;;;;9.23;7.33;;;;;;;2.39;100.00;96302.13;5030834;28;105198;-62
2022/03/03 08:25:55;;;;;;;10.97;7.43;;;;;;;2.24;100.00;96298.09;5032136;27;102740;-62
2022/03/03 08:28:31;;;;;;;9.23;6.80;;;;;;;2.35;100.00;96297.50;5032617;27;101799;-62
2022/03/03 08:31:03;;;;;;;12.17;7.17;;;;;;;2.39;100.00;96296.06;5033017;28;105221;-62
2022/03/03 08:33:40;;;;;;;8.60;6.30;;;;;;;2.74;100.00;96292.22;5032429;27;101700;-62
2022/03/03 08:36:16;;;;;;;9.10;6.70;;;;;;;3.00;100.00;96300.06;5032531;27;102426;-62
2022/03/03 08:38:51;;;;;;;9.50;6.87;;;;;;;3.47;100.00;96307.59;5011834;28;102617;-62
2022/03/03 08:41:22;;;;;;;9.40;6.90;;;;;;;3.35;100.00;96312.69;5013102;28;101834;-62
2022/03/03 08:43:52;;;;;;;8.00;6.40;;;;;;;3.48;100.00;96314.44;5032329;28;102464;-62
2022/03/03 08:46:25;;;;;;;8.27;6.53;;;;;;;3.68;100.00;96316.00;5030998;27;103393;-62
2022/03/03 08:48:54;;;;;;;8.80;6.37;;;;;;;4.20;100.00;96304.38;5032650;28;101799;-62
2022/03/03 08:51:21;;;;;;;10.80;6.67;;;;;;;4.36;100.00;96304.66;5032316;28;102524;-62
2022/03/03 08:53:48;;;;;;;11.50;7.17;;;;;;;4.35;100.00;96302.22;5032575;28;106157;-63
2022/03/03 08:56:15;;;;;;;9.60;6.47;;;;;;;4.59;100.00;96302.25;5031783;28;104630;-63
2022/03/03 08:59:10;;;;;;;8.30;6.17;;;;;;;4.50;100.00;96295.66;5030099;28;105326;-63
2022/03/03 09:01:39;;;;;;;12.17;6.23;;;;;;;4.58;95.60;96299.84;5031935;27;102186;-63
2022/03/03 09:04:07;;;;;;;8.37;6.60;;;;;;;4.88;96.48;96290.25;5031594;28;102577;-63
2022/03/03 09:06:34;;;;;;;10.13;6.50;;;;;;;5.19;94.19;96287.50;5030402;27;102990;-63
2022/03/03 09:09:03;;;;;;;9.57;6.93;;;;;;;5.26;91.61;96285.59;5031807;27;101994;-63
2022/03/03 09:11:31;;;;;;;11.47;6.33;;;;;;;5.00;86.16;96281.41;5013518;28;105101;-63
2022/03/03 09:13:58;;;;;;;7.63;6.10;;;;;;;5.27;93.27;96281.94;5033432;28;105247;-63
2022/03/03 09:16:26;;;;;;;9.30;6.77;;;;;;;5.57;87.12;96272.25;5031985;28;102576;-63
2022/03/03 09:18:56;;;;;;;10.50;7.17;;;;;;;5.52;85.07;96269.47;5030968;28;103097;-63
2022/03/03 09:21:23;;;;;;;10.20;6.47;;;;;;;5.37;91.53;96266.41;5031723;28;101650;-63
2022/03/03 09:23:50;;;;;;;10.33;6.73;;;;;;;6.05;87.78;96263.31;5031464;28;102454;-63
2022/03/03 09:26:17;;;;;;;11.70;7.10;;;;;;;6.00;82.80;96265.81;5030941;28;102465;-63
2022/03/03 09:28:45;;;;;;;11.10;6.70;;;;;;;6.05;81.68;96262.53;5031428;28;101860;-63
2022/03/03 09:31:12;;;;;;;9.37;7.37;;;;;;;6.27;81.35;96261.75;5029961;28;102396;-63
2022/03/03 09:33:38;;;;;;;10.87;6.47;;;;;;;6.51;75.95;96257.31;5030704;28;102628;-63
2022/03/03 09:36:07;;;;;;;10.93;5.87;;;;;;;6.06;71.44;96246.44;5034770;28;101773;-63
2022/03/03 09:38:35;;;;;;;9.43;5.93;;;;;;;5.94;71.70;96252.72;5029379;28;105685;-63
2022/03/03 09:41:02;;;;;;;10.07;6.70;;;;;;;6.00;71.48;96249.97;5031564;28;101614;-63
2022/03/03 09:43:30;;;;;;;9.00;6.10;;;;;;;6.26;67.12;96246.13;5029764;28;105351;-63
2022/03/03 09:45:57;;;;;;;9.47;6.30;;;;;;;6.50;66.16;96243.31;5030593;27;102979;-63
2022/03/03 09:48:23;;;;;;;8.13;6.47;;;;;;;6.52;64.76;96240.44;5031017;28;101832;-63
2022/03/03 09:50:50;;;;;;;9.03;6.10;;;;;;;6.75;64.00;96233.34;5031389;28;102529;-63
2022/03/03 09:53:19;;;;;;;7.43;5.77;;;;;;;6.68;65.18;96230.00;5030604;28;103213;-63
2022/03/03 09:55:48;;;;;;;11.37;6.67;;;;;;;6.99;65.61;96232.28;5030952;28;101976;-63
2022/03/03 09:58:17;;;;;;;9.17;5.77;;;;;;;7.03;63.37;96237.94;5032218;28;105667;-63
2022/03/03 10:00:44;;;;;;;9.43;6.27;;;;;;;6.92;61.87;96236.09;5030854;27;101722;-63
2022/03/03 10:03:14;;;;;;;10.87;5.97;;;;;;;6.94;61.23;96231.38;5029785;27;104809;-63
2022/03/03 10:05:46;;;;;;;9.77;6.20;;;;;;;7.32;61.54;96229.00;5028964;28;105220;-63
2022/03/03 10:08:15;;;;;;;10.63;6.70;;;;;;;7.17;59.95;96233.97;5029376;28;101774;-63
2022/03/03 10:10:50;;;;;;;8.30;6.10;;;;;;;7.56;56.78;96235.84;5029383;28;106727;-63
2022/03/03 10:13:18;;;;;;;8.87;6.20;;;;;;;8.13;58.27;96229.50;5029941;28;102483;-63
2022/03/03 10:15:46;;;;;;;8.93;6.13;;;;;;;8.32;57.06;96237.03;5029492;28;101832;-63
2022/03/03 10:18:15;;;;;;;9.17;6.23;;;;;;;8.54;58.29;96237.09;5030572;28;102437;-63
2022/03/03 10:20:50;;;;;;;8.33;6.40;;;;;;;8.56;54.26;96240.34;5031998;28;105551;-63
2022/03/03 10:23:19;;;;;;;9.23;6.07;;;;;;;8.04;55.78;96238.88;5030819;28;102402;-63
2022/03/03 10:25:48;;;;;;;9.50;6.57;;;;;;;7.96;55.17;96239.28;5030030;28;104757;-63
2022/03/03 10:28:18;;;;;;;8.00;6.23;;;;;;;7.58;57.67;96237.22;5030257;28;101818;-63
2022/03/03 10:31:06;;;;;;;9.73;6.73;;;;;;;8.62;60.66;96240.16;5029594;28;102527;-63
2022/03/03 10:33:35;;;;;;;8.33;6.10;;;;;;;8.79;57.04;96233.00;5028783;28;105604;-63
2022/03/03 10:36:08;;;;;;;7.10;5.73;;;;;;;8.40;48.47;96235.84;5030203;27;101676;-63
2022/03/03 10:38:46;;;;;;;10.10;5.27;;;;;;;8.59;49.57;96234.53;5028614;28;105173;-63
2022/03/03 10:41:42;;;;;;;6.60;5.73;;;;;;;8.54;50.86;96224.66;5028019;28;105398;-63
2022/03/03 10:44:11;;;;;;;6.57;5.10;;;;;;;8.64;47.10;96227.47;5031903;28;101859;-63
2022/03/03 10:46:40;;;;;;;5.57;4.63;;;;;;;8.75;44.55;96228.44;5027749;28;104869;-63
2022/03/03 10:49:21;;;;;;;5.73;4.70;;;;;;;9.61;45.23;96215.25;5028464;28;101781;-63
2022/03/03 10:51:49;;;;;;;4.70;4.00;;;;;;;9.70;42.31;96213.78;5029896;28;104579;-63
2022/03/03 10:54:16;;;;;;;9.37;5.30;;;;;;;10.13;42.39;96211.03;5029598;28;102934;-63
2022/03/03 10:56:46;;;;;;;6.77;4.43;;;;;;;9.88;41.31;96210.78;5030022;27;101807;-63
2022/03/03 10:59:22;;;;;;;6.67;4.67;;;;;;;10.18;44.31;96203.13;5029942;28;104355;-63
2022/03/03 11:01:50;;;;;;;6.87;5.30;;;;;;;10.29;43.64;96205.63;5029465;28;101787;-63
2022/03/03 11:04:19;;;;;;;5.63;5.13;;;;;;;10.05;44.09;96201.72;5030128;28;101788;-63
2022/03/03 11:06:49;;;;;;;7.13;5.30;;;;;;;10.13;41.70;96201.22;5031377;28;105285;-63
2022/03/03 11:09:17;;;;;;;6.47;5.57;;;;;;;9.40;39.79;96194.84;5028210;28;102105;-63
2022/03/03 11:11:46;;;;;;;7.23;5.43;;;;;;;9.31;40.78;96191.00;5028641;28;105340;-63
2022/03/03 11:14:13;;;;;;;6.03;5.33;;;;;;;9.40;41.48;96184.22;5027929;28;105414;-63
2022/03/03 11:16:41;;;;;;;5.93;4.93;;;;;;;9.33;40.75;96176.44;5030982;28;101864;-63
2022/03/03 11:19:10;;;;;;;8.23;5.40;;;;;;;9.49;41.88;96166.81;5032186;28;105146;-63